createdAt,value
2023-03-29T00:01:54.018Z,2.30
2023-03-29T00:06:55.562Z,2.72
2023-03-29T00:11:56.889Z,2.20
2023-03-29T00:16:58.355Z,2.30
2023-03-29T00:21:59.783Z,2.00
2023-03-29T00:27:01.467Z,2.15
2023-03-29T00:32:02.717Z,1.75
2023-03-29T00:37:06.768Z,2.20
2023-03-29T00:42:15.349Z,1.83
2023-03-29T00:47:18.156Z,1.70
2023-03-29T00:52:24.116Z,1.35
2023-03-29T00:57:27.805Z,1.60
2023-03-29T01:02:29.762Z,1.40
2023-03-29T01:07:50.977Z,1.30
2023-03-29T01:12:56.239Z,1.40
2023-03-29T01:17:58.389Z,1.35
2023-03-29T01:23:15.854Z,1.50
2023-03-29T01:28:22.824Z,1.70
2023-03-29T01:33:25.655Z,2.33
2023-03-29T01:38:29.762Z,1.80
2023-03-29T01:43:33.802Z,1.90
2023-03-29T01:48:52.607Z,1.65
2023-03-29T01:54:04.570Z,1.42
2023-03-29T01:59:07.599Z,1.63
2023-03-29T02:04:13.158Z,1.70
2023-03-29T02:09:14.844Z,1.60
2023-03-29T02:14:16.892Z,1.60
2023-03-29T02:19:19.006Z,1.50
2023-03-29T02:24:22.059Z,1.60
2023-03-29T02:29:23.310Z,1.63
2023-03-29T02:34:37.504Z,1.67
2023-03-29T02:39:39.617Z,2.03
2023-03-29T02:44:41.662Z,3.67
2023-03-29T02:49:43.296Z,3.00
2023-03-29T02:54:47.423Z,2.20
2023-03-29T02:59:48.784Z,1.90
2023-03-29T03:04:50.109Z,1.85
2023-03-29T03:09:51.857Z,1.80
2023-03-29T03:14:53.160Z,1.70
2023-03-29T03:19:54.445Z,1.80
2023-03-29T03:24:56.023Z,1.95
2023-03-29T03:29:57.312Z,1.70
2023-03-29T03:34:58.879Z,1.52
2023-03-29T03:40:00.554Z,1.30
2023-03-29T03:45:01.895Z,1.60
2023-03-29T03:50:03.824Z,1.40
2023-03-29T03:55:05.357Z,1.40
2023-03-29T04:00:19.317Z,1.90
2023-03-29T04:05:20.804Z,2.00
2023-03-29T04:10:22.582Z,1.80
2023-03-29T04:15:23.861Z,1.95
2023-03-29T04:20:25.518Z,1.63
2023-03-29T04:25:26.770Z,1.73
2023-03-29T04:30:28.041Z,2.50
2023-03-29T04:35:29.410Z,3.25
2023-03-29T04:40:30.762Z,2.00
2023-03-29T04:45:32.050Z,1.60
2023-03-29T04:50:33.395Z,2.00
2023-03-29T04:55:34.681Z,1.50
2023-03-29T05:00:36.600Z,1.70
2023-03-29T05:05:38.383Z,1.90
2023-03-29T05:10:43.105Z,2.00
2023-03-29T05:15:44.586Z,1.92
2023-03-29T05:20:47.209Z,2.40
2023-03-29T05:25:51.221Z,1.90
2023-03-29T05:30:59.973Z,2.10
2023-03-29T05:36:02.239Z,2.75
2023-03-29T05:41:03.749Z,2.47
2023-03-29T05:46:06.155Z,2.50
2023-03-29T05:51:08.244Z,2.30
2023-03-29T05:56:10.748Z,2.20
2023-03-29T06:01:13.617Z,2.58
2023-03-29T06:06:16.478Z,2.60
2023-03-29T06:11:17.897Z,2.30
2023-03-29T06:16:19.211Z,3.95
2023-03-29T06:21:21.072Z,3.83
2023-03-29T06:26:22.346Z,3.30
2023-03-29T06:31:23.619Z,3.88
2023-03-29T06:36:25.645Z,3.10
2023-03-29T06:41:27.035Z,2.92
2023-03-29T06:46:29.010Z,3.00
2023-03-29T06:51:30.542Z,3.15
2023-03-29T06:56:32.151Z,3.08
2023-03-29T07:01:34.712Z,3.23
2023-03-29T07:06:40.359Z,3.50
2023-03-29T07:11:42.233Z,2.72
2023-03-29T07:16:47.225Z,3.00
2023-03-29T07:21:48.866Z,3.30
2023-03-29T07:27:03.377Z,3.67
2023-03-29T07:32:05.617Z,3.17
2023-03-29T07:37:07.061Z,3.00
2023-03-29T07:42:08.966Z,3.10
2023-03-29T07:47:10.611Z,3.33
2023-03-29T07:52:12.089Z,3.13
2023-03-29T07:57:13.391Z,3.10
2023-03-29T08:02:15.210Z,2.78
2023-03-29T08:07:19.856Z,3.63
2023-03-29T08:12:23.214Z,3.70
2023-03-29T08:17:26.367Z,3.10
2023-03-29T08:22:28.379Z,2.78
2023-03-29T08:27:29.891Z,3.00
2023-03-29T08:32:31.613Z,3.00
2023-03-29T08:37:32.977Z,3.13
2023-03-29T08:42:47.276Z,3.00
2023-03-29T08:47:56.238Z,4.00
2023-03-29T08:52:59.015Z,2.78
2023-03-29T08:58:02.268Z,2.50
2023-03-29T09:03:09.041Z,2.50
2023-03-29T09:08:16.302Z,2.50
2023-03-29T09:13:23.667Z,2.38
2023-03-29T09:18:51.014Z,2.03
2023-03-29T09:24:11.072Z,2.17
2023-03-29T09:29:23.710Z,2.10
2023-03-29T09:34:36.141Z,1.80
2023-03-29T09:39:38.244Z,2.40
2023-03-29T09:44:50.524Z,2.30
2023-03-29T09:49:55.155Z,2.07
2023-03-29T09:54:56.697Z,2.00
2023-03-29T09:59:58.964Z,1.90
2023-03-29T10:05:04.065Z,1.90
2023-03-29T10:10:07.575Z,2.10
2023-03-29T10:15:16.740Z,2.20
2023-03-29T10:20:24.517Z,1.83
2023-03-29T10:25:27.824Z,1.65
2023-03-29T10:30:30.157Z,2.47
2023-03-29T10:35:39.757Z,2.20
2023-03-29T10:40:43.046Z,1.65
2023-03-29T10:45:47.791Z,2.03
2023-03-29T10:50:50.373Z,7.10
2023-03-29T10:55:54.492Z,2.10
2023-03-29T11:00:56.862Z,2.47
2023-03-29T11:05:58.171Z,1.53
2023-03-29T11:10:59.491Z,2.72
2023-03-29T11:16:19.770Z,4.03
2023-03-29T11:21:32.003Z,1.60
2023-03-29T11:26:56.275Z,2.33
2023-03-29T11:32:00.946Z,1.80
2023-03-29T11:37:08.681Z,3.00
2023-03-29T11:42:29.221Z,1.50
2023-03-29T11:47:37.189Z,1.70
2023-03-29T11:53:04.944Z,2.03
2023-03-29T11:58:10.151Z,1.60
2023-03-29T12:03:20.990Z,1.27
2023-03-29T12:08:25.852Z,1.60
2023-03-29T12:13:30.490Z,1.65
2023-03-29T12:18:52.009Z,1.58
2023-03-29T12:23:53.465Z,2.10
2023-03-29T12:29:05.468Z,1.52
2023-03-29T12:34:18.991Z,1.52
2023-03-29T12:39:23.338Z,1.87
2023-03-29T12:44:24.683Z,1.70
2023-03-29T12:49:28.066Z,1.42
2023-03-29T12:54:31.376Z,2.30
2023-03-29T12:59:43.294Z,2.53
2023-03-29T13:04:50.872Z,1.70
2023-03-29T13:09:53.875Z,1.50
2023-03-29T13:15:00.160Z,1.10
2023-03-29T13:20:17.202Z,1.67
2023-03-29T13:25:30.990Z,2.00
2023-03-29T13:30:50.936Z,2.47
2023-03-29T13:36:05.004Z,2.40
2023-03-29T13:41:23.077Z,1.93
2023-03-29T13:46:33.527Z,1.83
2023-03-29T13:51:38.184Z,1.60
2023-03-29T13:56:58.465Z,3.00
2023-03-29T14:02:02.780Z,1.58
2023-03-29T14:07:04.937Z,1.93
2023-03-29T14:12:06.754Z,1.60
2023-03-29T14:17:08.366Z,2.08
2023-03-29T14:22:13.126Z,1.77
2023-03-29T14:27:15.716Z,1.70
2023-03-29T14:32:18.659Z,2.10
2023-03-29T14:37:38.574Z,2.17
2023-03-29T14:42:41.081Z,2.67
2023-03-29T14:47:42.715Z,1.75
2023-03-29T14:52:46.399Z,1.70
2023-03-29T14:57:49.191Z,1.90
2023-03-29T15:02:53.894Z,2.05
2023-03-29T15:07:56.277Z,2.47
2023-03-29T15:12:58.562Z,2.20
2023-03-29T15:18:00.795Z,2.10
2023-03-29T15:23:22.416Z,1.80
2023-03-29T15:28:28.309Z,2.43
2023-03-29T15:33:47.956Z,2.70
2023-03-29T15:38:50.555Z,3.15
2023-03-29T15:43:51.815Z,3.67
2023-03-29T15:48:53.547Z,1.70
2023-03-29T15:53:54.790Z,1.80
2023-03-29T15:58:56.102Z,3.20
2023-03-29T16:03:57.826Z,3.90
2023-03-29T16:08:59.178Z,2.30
2023-03-29T16:14:00.856Z,1.90
2023-03-29T16:19:02.166Z,2.58
2023-03-29T16:24:03.906Z,4.75
2023-03-29T16:29:05.213Z,4.47
2023-03-29T16:34:06.742Z,3.90
2023-03-29T16:39:08.012Z,3.65
2023-03-29T16:44:13.867Z,2.10
2023-03-29T16:49:18.452Z,2.50
2023-03-29T16:54:19.883Z,2.70
2023-03-29T16:59:21.744Z,2.50
2023-03-29T17:04:23.035Z,2.30
2023-03-29T17:09:24.396Z,2.65
2023-03-29T17:14:26.441Z,3.37
2023-03-29T17:19:27.804Z,3.58
2023-03-29T17:24:29.183Z,3.33
2023-03-29T17:29:30.730Z,6.67
2023-03-29T17:34:32.964Z,5.43
2023-03-29T17:39:37.331Z,4.13
2023-03-29T17:44:38.807Z,4.30
2023-03-29T17:49:40.481Z,4.60
2023-03-29T17:54:41.721Z,7.10
2023-03-29T17:59:43.023Z,5.07
2023-03-29T18:04:44.423Z,3.85
2023-03-29T18:09:46.065Z,3.67
2023-03-29T18:14:47.309Z,4.50
2023-03-29T18:19:48.647Z,4.47
2023-03-29T18:24:50.871Z,4.10
2023-03-29T18:29:55.030Z,7.43
2023-03-29T18:34:56.489Z,7.45
2023-03-29T18:39:57.798Z,11.20
2023-03-29T18:44:59.270Z,5.72
2023-03-29T18:50:02.351Z,5.47
2023-03-29T18:55:04.409Z,7.70
2023-03-29T19:00:10.771Z,8.15
2023-03-29T19:05:12.080Z,8.38
2023-03-29T19:10:13.417Z,7.63
2023-03-29T19:15:14.815Z,7.90
2023-03-29T19:20:16.665Z,6.93
2023-03-29T19:25:18.090Z,5.57
2023-03-29T19:30:23.065Z,5.72
2023-03-29T19:35:24.440Z,6.80
2023-03-29T19:40:27.323Z,5.28
2023-03-29T19:45:28.730Z,5.67
2023-03-29T19:50:31.439Z,6.90
2023-03-29T19:55:33.012Z,6.57
2023-03-29T20:00:34.843Z,5.60
2023-03-29T20:05:36.769Z,5.30
2023-03-29T20:10:38.314Z,3.37
2023-03-29T20:15:39.741Z,3.92
2023-03-29T20:20:41.074Z,4.63
2023-03-29T20:25:42.468Z,4.60
2023-03-29T20:30:43.778Z,8.38
2023-03-29T20:35:45.668Z,5.50
2023-03-29T20:40:48.887Z,4.82
2023-03-29T20:45:54.692Z,5.85
2023-03-29T20:50:57.689Z,5.10
2023-03-29T20:55:59.097Z,5.68
2023-03-29T21:01:00.644Z,5.17
2023-03-29T21:06:04.680Z,5.20
2023-03-29T21:11:08.053Z,6.10
2023-03-29T21:16:09.737Z,6.13
2023-03-29T21:21:11.739Z,6.18
2023-03-29T21:26:13.125Z,6.17
2023-03-29T21:31:14.435Z,6.57
2023-03-29T21:36:15.737Z,6.00
2023-03-29T21:41:17.423Z,5.63
2023-03-29T21:46:18.837Z,5.93
2023-03-29T21:51:20.267Z,5.67
2023-03-29T21:56:22.324Z,5.60
2023-03-29T22:01:23.818Z,5.68
2023-03-29T22:06:25.132Z,4.87
2023-03-29T22:11:28.498Z,6.22
2023-03-29T22:16:31.227Z,6.20
2023-03-29T22:21:32.582Z,5.75
2023-03-29T22:26:33.935Z,6.40
2023-03-29T22:31:35.514Z,5.50
2023-03-29T22:36:37.022Z,4.38
2023-03-29T22:41:38.313Z,4.23
2023-03-29T22:46:39.549Z,4.65
2023-03-29T22:51:40.808Z,4.40
2023-03-29T22:56:42.097Z,4.43
2023-03-29T23:01:43.427Z,4.50
2023-03-29T23:06:44.815Z,7.40
2023-03-29T23:11:46.137Z,5.38
2023-03-29T23:16:47.419Z,5.35
2023-03-29T23:21:48.951Z,5.53
2023-03-29T23:26:50.249Z,5.22
2023-03-29T23:31:51.564Z,5.83
2023-03-29T23:36:52.929Z,4.50
2023-03-29T23:41:54.241Z,4.18
2023-03-29T23:46:55.727Z,4.40
2023-03-29T23:52:00.034Z,3.67
2023-03-29T23:57:01.374Z,3.53
